Time;durP1;ratioP1;P1;durP2;ratioP2;P2;SDS_P1;SDS_P2;PMS_P1;PMS_P2;Temp;Humidity;BMP_temperature;BMP_pressure;BME280_temperature;BME280_humidity;BME280_pressure;Samples;Min_cycle;Max_cycle;Signal;HPM_P1;HPM_P2
2023/09/23 00:00:49;;;;;;;1.80;1.20;;;;;;;;;;4953680;28;20170;-81
2023/09/23 00:03:16;;;;;;;1.37;0.87;;;;;;;;;;4951970;29;20194;-81
2023/09/23 00:05:43;;;;;;;1.53;1.10;;;;;;;;;;4954669;28;20572;-81
2023/09/23 00:08:10;;;;;;;1.13;0.90;;;;;;;;;;4953080;28;20215;-81
2023/09/23 00:10:37;;;;;;;1.77;1.07;;;;;;;;;;4945705;29;20217;-81
2023/09/23 00:13:03;;;;;;;1.20;1.10;;;;;;;;;;4953007;28;20185;-81
2023/09/23 00:15:29;;;;;;;2.40;1.20;;;;;;;;;;4951920;29;20665;-81
2023/09/23 00:17:55;;;;;;;2.50;1.30;;;;;;;;;;4953059;29;20711;-81
2023/09/23 00:20:22;;;;;;;1.53;0.97;;;;;;;;;;4967625;28;20673;-81
2023/09/23 00:22:53;;;;;;;2.57;1.30;;;;;;;;;;4967343;28;20201;-81
2023/09/23 00:25:19;;;;;;;1.40;1.10;;;;;;;;;;4952212;28;20197;-81
2023/09/23 00:27:46;;;;;;;2.00;1.20;;;;;;;;;;4950685;29;20300;-81
2023/09/23 00:30:15;;;;;;;2.10;1.20;;;;;;;;;;4934209;29;20248;-81
2023/09/23 00:32:44;;;;;;;1.80;1.00;;;;;;;;;;4951965;29;20208;-81
2023/09/23 00:35:11;;;;;;;1.20;1.00;;;;;;;;;;4951682;28;20181;-82
2023/09/23 00:37:40;;;;;;;1.33;1.03;;;;;;;;;;4943988;29;20198;-81
2023/09/23 00:40:13;;;;;;;2.27;0.90;;;;;;;;;;4951285;28;20181;-81
2023/09/23 00:42:39;;;;;;;2.37;1.00;;;;;;;;;;4951869;28;20236;-81
2023/09/23 00:45:06;;;;;;;2.07;1.00;;;;;;;;;;4934578;29;20192;-80
2023/09/23 00:47:32;;;;;;;2.50;1.00;;;;;;;;;;4949995;29;20193;-81
2023/09/23 00:49:59;;;;;;;1.93;0.93;;;;;;;;;;4951041;29;20209;-82
2023/09/23 00:52:26;;;;;;;1.20;1.00;;;;;;;;;;4948878;29;20233;-81
2023/09/23 00:54:52;;;;;;;1.20;1.10;;;;;;;;;;4950410;29;20185;-82
2023/09/23 00:57:18;;;;;;;1.33;1.13;;;;;;;;;;4950436;29;20235;-81
2023/09/23 00:59:45;;;;;;;0.93;0.90;;;;;;;;;;4949823;29;20200;-81
2023/09/23 01:02:13;;;;;;;1.47;1.00;;;;;;;;;;4936000;29;20202;-81
2023/09/23 01:04:39;;;;;;;1.87;1.00;;;;;;;;;;4946211;29;20189;-81
2023/09/23 01:07:09;;;;;;;2.73;0.90;;;;;;;;;;4933616;29;20198;-81
2023/09/23 01:09:35;;;;;;;1.37;1.20;;;;;;;;;;4952078;28;20213;-81
2023/09/23 01:12:01;;;;;;;2.37;1.30;;;;;;;;;;4940390;29;20661;-81
2023/09/23 01:14:28;;;;;;;1.40;1.20;;;;;;;;;;4947930;29;20193;-81
2023/09/23 01:16:57;;;;;;;1.03;0.93;;;;;;;;;;4952193;29;20189;-81
2023/09/23 01:19:26;;;;;;;1.57;1.10;;;;;;;;;;4932532;29;20728;-81
2023/09/23 01:21:54;;;;;;;1.90;0.90;;;;;;;;;;4950727;29;20188;-82
2023/09/23 01:24:20;;;;;;;1.67;1.00;;;;;;;;;;4934931;29;20197;-81
2023/09/23 01:26:51;;;;;;;1.43;1.20;;;;;;;;;;4951557;29;20204;-81
2023/09/23 01:29:23;;;;;;;0.97;0.87;;;;;;;;;;4934030;29;20221;-81
2023/09/23 01:32:04;;;;;;;2.13;1.10;;;;;;;;;;4950614;29;20181;-81
2023/09/23 01:34:30;;;;;;;1.00;1.00;;;;;;;;;;4949407;28;20790;-81
2023/09/23 01:36:58;;;;;;;0.93;0.93;;;;;;;;;;4950108;29;20208;-81
2023/09/23 01:39:24;;;;;;;1.10;1.00;;;;;;;;;;4951080;28;20296;-81
2023/09/23 01:41:53;;;;;;;2.13;1.20;;;;;;;;;;4951756;28;20201;-81
2023/09/23 01:44:20;;;;;;;2.00;1.00;;;;;;;;;;4950993;29;20185;-81
2023/09/23 01:46:46;;;;;;;1.20;1.10;;;;;;;;;;4946831;29;20206;-81
2023/09/23 01:49:12;;;;;;;1.33;1.10;;;;;;;;;;4948274;29;20216;-82
2023/09/23 01:51:39;;;;;;;1.30;1.20;;;;;;;;;;4971226;28;20185;-81
2023/09/23 01:54:07;;;;;;;1.47;1.17;;;;;;;;;;4944042;29;20226;-81
2023/09/23 01:56:34;;;;;;;1.20;1.10;;;;;;;;;;4952524;28;20268;-81
2023/09/23 01:59:00;;;;;;;1.97;1.10;;;;;;;;;;4938466;29;20315;-81
2023/09/23 02:01:26;;;;;;;2.90;1.20;;;;;;;;;;4951281;29;20272;-81
2023/09/23 02:03:56;;;;;;;1.60;1.10;;;;;;;;;;4951313;29;20189;-81
2023/09/23 02:06:22;;;;;;;0.87;0.80;;;;;;;;;;4952113;28;20794;-81
2023/09/23 02:08:48;;;;;;;1.60;0.90;;;;;;;;;;4950237;29;20231;-81
2023/09/23 02:11:16;;;;;;;1.10;1.00;;;;;;;;;;4952427;28;20193;-81
2023/09/23 02:13:42;;;;;;;3.80;1.03;;;;;;;;;;4953991;29;20189;-81
2023/09/23 02:16:09;;;;;;;0.90;0.90;;;;;;;;;;4955026;28;20243;-81
2023/09/23 02:18:37;;;;;;;1.80;1.00;;;;;;;;;;4952951;29;20815;-81
2023/09/23 02:21:03;;;;;;;0.80;0.80;;;;;;;;;;4937397;29;20197;-81
2023/09/23 02:23:30;;;;;;;2.67;0.97;;;;;;;;;;4969449;28;20185;-81
2023/09/23 02:25:57;;;;;;;1.03;0.87;;;;;;;;;;4949714;29;20194;-81
2023/09/23 02:28:24;;;;;;;3.23;1.00;;;;;;;;;;4953192;29;20256;-81
2023/09/23 02:30:52;;;;;;;1.20;1.00;;;;;;;;;;4939332;29;20219;-81
2023/09/23 02:33:20;;;;;;;1.17;1.00;;;;;;;;;;4922555;29;20657;-81
2023/09/23 02:35:46;;;;;;;1.87;1.00;;;;;;;;;;4933039;29;20217;-81
2023/09/23 02:38:12;;;;;;;2.13;1.10;;;;;;;;;;4951714;29;20268;-82
2023/09/23 02:40:42;;;;;;;1.90;1.03;;;;;;;;;;4952179;29;20248;-82
2023/09/23 02:43:08;;;;;;;1.20;1.10;;;;;;;;;;4950511;29;20625;-82
2023/09/23 02:45:36;;;;;;;1.30;0.90;;;;;;;;;;4936254;29;20197;-82
2023/09/23 02:48:02;;;;;;;1.03;0.90;;;;;;;;;;4935922;29;20223;-82
2023/09/23 02:50:28;;;;;;;2.97;1.20;;;;;;;;;;4953310;28;20209;-82
2023/09/23 02:52:54;;;;;;;2.37;1.00;;;;;;;;;;4952556;29;20173;-82
2023/09/23 02:55:21;;;;;;;1.10;1.00;;;;;;;;;;4953544;29;20222;-82
2023/09/23 02:57:54;;;;;;;0.97;0.93;;;;;;;;;;4952060;29;20205;-82
2023/09/23 03:00:22;;;;;;;2.47;1.00;;;;;;;;;;4937980;29;20277;-82
2023/09/23 03:02:56;;;;;;;2.17;1.10;;;;;;;;;;4953835;28;20191;-82
2023/09/23 03:05:28;;;;;;;1.73;1.20;;;;;;;;;;4940134;29;20205;-82
2023/09/23 03:07:58;;;;;;;2.80;1.07;;;;;;;;;;4952196;29;20217;-82
2023/09/23 03:10:32;;;;;;;1.20;1.10;;;;;;;;;;4927803;29;20276;-82
2023/09/23 03:13:07;;;;;;;2.90;1.13;;;;;;;;;;4952073;29;20196;-82
2023/09/23 03:16:07;;;;;;;1.67;1.10;;;;;;;;;;4951196;29;20195;-82
2023/09/23 03:18:33;;;;;;;1.67;1.20;;;;;;;;;;4950838;29;20212;-82
2023/09/23 03:21:10;;;;;;;1.50;1.17;;;;;;;;;;4951772;29;20648;-82
2023/09/23 03:23:40;;;;;;;1.30;1.00;;;;;;;;;;4967544;28;20675;-82
2023/09/23 03:26:08;;;;;;;1.33;1.00;;;;;;;;;;4935735;29;20220;-82
2023/09/23 03:28:35;;;;;;;4.23;1.13;;;;;;;;;;4942854;29;20210;-82
2023/09/23 03:31:02;;;;;;;1.37;1.07;;;;;;;;;;4951115;29;20205;-82
2023/09/23 03:33:30;;;;;;;1.60;1.00;;;;;;;;;;4932411;29;20205;-82
2023/09/23 03:35:56;;;;;;;1.50;1.10;;;;;;;;;;4935952;29;20186;-82
2023/09/23 03:38:22;;;;;;;2.70;1.17;;;;;;;;;;4938422;29;20922;-82
2023/09/23 03:40:52;;;;;;;2.33;1.00;;;;;;;;;;4952280;29;20560;-82
2023/09/23 03:43:20;;;;;;;2.13;1.00;;;;;;;;;;4919126;29;20188;-82
2023/09/23 03:45:47;;;;;;;1.37;1.00;;;;;;;;;;4951043;29;20898;-82
2023/09/23 03:48:15;;;;;;;4.63;1.10;;;;;;;;;;4950312;29;20216;-82
2023/09/23 03:50:41;;;;;;;1.43;1.20;;;;;;;;;;4950889;29;20691;-82
2023/09/23 03:53:07;;;;;;;1.27;1.00;;;;;;;;;;4952223;28;20525;-81
2023/09/23 03:55:34;;;;;;;3.03;1.30;;;;;;;;;;4937131;29;20201;-82
2023/09/23 03:58:01;;;;;;;1.27;1.00;;;;;;;;;;4934751;29;20205;-82
2023/09/23 04:00:27;;;;;;;3.43;1.30;;;;;;;;;;4934978;29;20645;-82
2023/09/23 04:02:54;;;;;;;1.20;1.10;;;;;;;;;;4952176;28;20673;-82
2023/09/23 04:05:23;;;;;;;2.63;1.17;;;;;;;;;;4951995;28;20185;-82
2023/09/23 04:07:50;;;;;;;2.03;1.50;;;;;;;;;;4947314;29;20214;-82
2023/09/23 04:10:27;;;;;;;1.20;1.10;;;;;;;;;;4948879;29;20201;-82
2023/09/23 04:12:54;;;;;;;2.10;1.10;;;;;;;;;;4967369;28;20292;-82
2023/09/23 04:15:24;;;;;;;1.60;1.10;;;;;;;;;;4950356;29;20185;-82
2023/09/23 04:17:50;;;;;;;1.30;1.20;;;;;;;;;;4953051;28;20634;-82
2023/09/23 04:20:17;;;;;;;2.00;1.23;;;;;;;;;;4943065;29;20200;-82
2023/09/23 04:22:46;;;;;;;1.30;1.03;;;;;;;;;;4966906;28;20185;-82
2023/09/23 04:25:14;;;;;;;1.10;1.00;;;;;;;;;;4950568;29;20210;-82
2023/09/23 04:27:40;;;;;;;2.13;1.20;;;;;;;;;;4947917;29;20797;-82
2023/09/23 04:30:09;;;;;;;2.23;1.43;;;;;;;;;;4947590;29;20272;-82
2023/09/23 04:32:36;;;;;;;1.70;1.27;;;;;;;;;;4950509;29;20212;-82
2023/09/23 04:35:07;;;;;;;1.30;1.20;;;;;;;;;;4951362;28;20177;-82
2023/09/23 04:37:37;;;;;;;2.37;1.13;;;;;;;;;;4950397;29;20237;-82
2023/09/23 04:40:10;;;;;;;1.90;1.23;;;;;;;;;;4951072;28;20181;-82
2023/09/23 04:42:37;;;;;;;1.47;1.20;;;;;;;;;;4951561;28;20240;-82
2023/09/23 04:45:04;;;;;;;1.47;1.37;;;;;;;;;;4951475;29;20191;-82
2023/09/23 04:47:30;;;;;;;2.10;1.20;;;;;;;;;;4966195;28;20216;-82
2023/09/23 04:49:58;;;;;;;1.30;1.20;;;;;;;;;;4949761;29;20220;-82
2023/09/23 04:52:27;;;;;;;1.87;1.30;;;;;;;;;;4951627;28;20186;-82
2023/09/23 04:54:54;;;;;;;1.53;1.20;;;;;;;;;;4918501;29;20190;-82
2023/09/23 04:57:20;;;;;;;1.30;1.20;;;;;;;;;;4951335;29;20240;-82
2023/09/23 04:59:47;;;;;;;1.87;1.30;;;;;;;;;;4933916;29;20185;-82
2023/09/23 05:02:13;;;;;;;1.37;1.20;;;;;;;;;;4936381;29;20189;-82
2023/09/23 05:04:39;;;;;;;1.30;1.20;;;;;;;;;;4966636;28;20681;-82
2023/09/23 05:07:05;;;;;;;2.33;1.47;;;;;;;;;;4951362;29;20220;-82
2023/09/23 05:09:32;;;;;;;1.90;1.30;;;;;;;;;;4950391;28;20701;-82
2023/09/23 05:11:59;;;;;;;2.07;1.43;;;;;;;;;;4931045;29;20685;-82
2023/09/23 05:14:25;;;;;;;1.90;1.30;;;;;;;;;;4934506;29;20197;-82
2023/09/23 05:16:52;;;;;;;2.93;1.50;;;;;;;;;;4950300;29;20204;-82
2023/09/23 05:19:19;;;;;;;1.40;1.30;;;;;;;;;;4950845;29;20650;-82
2023/09/23 05:21:50;;;;;;;2.23;1.50;;;;;;;;;;4938392;29;20211;-82
2023/09/23 05:24:16;;;;;;;2.80;1.40;;;;;;;;;;4951296;28;20244;-82
2023/09/23 05:26:43;;;;;;;2.67;1.30;;;;;;;;;;4951177;28;20645;-82
2023/09/23 05:29:09;;;;;;;2.10;1.40;;;;;;;;;;4933476;29;20209;-82
2023/09/23 05:31:38;;;;;;;1.63;1.30;;;;;;;;;;4949943;29;20189;-82
2023/09/23 05:34:05;;;;;;;3.23;1.50;;;;;;;;;;4952147;28;20189;-82
2023/09/23 05:36:32;;;;;;;2.30;1.43;;;;;;;;;;4951475;28;20191;-82
2023/09/23 05:38:59;;;;;;;2.97;1.50;;;;;;;;;;4946604;29;20228;-82
2023/09/23 05:41:25;;;;;;;2.10;1.40;;;;;;;;;;4951033;28;20709;-82
2023/09/23 05:43:52;;;;;;;1.93;1.50;;;;;;;;;;4946679;29;20248;-82
2023/09/23 05:46:18;;;;;;;2.40;1.37;;;;;;;;;;4953295;28;20193;-84
2023/09/23 05:48:48;;;;;;;2.23;1.50;;;;;;;;;;4950014;29;20214;-82
2023/09/23 05:51:15;;;;;;;3.37;1.40;;;;;;;;;;4952217;29;20220;-82
2023/09/23 05:53:42;;;;;;;2.63;1.60;;;;;;;;;;4955321;29;20182;-82
2023/09/23 05:56:08;;;;;;;2.63;1.80;;;;;;;;;;4954725;29;20177;-82
2023/09/23 05:58:34;;;;;;;2.23;1.37;;;;;;;;;;4954135;29;20209;-82
2023/09/23 06:01:01;;;;;;;3.33;1.70;;;;;;;;;;4953127;29;20184;-82
2023/09/23 06:03:27;;;;;;;2.73;1.60;;;;;;;;;;4954427;28;20192;-81
2023/09/23 06:05:53;;;;;;;3.40;1.63;;;;;;;;;;4954704;29;20659;-82
2023/09/23 06:08:19;;;;;;;3.33;1.50;;;;;;;;;;4954350;29;20343;-82
2023/09/23 06:10:46;;;;;;;2.30;1.30;;;;;;;;;;4953468;29;20225;-82
2023/09/23 06:13:12;;;;;;;1.43;1.33;;;;;;;;;;4969381;28;20213;-82
2023/09/23 06:15:38;;;;;;;3.23;1.30;;;;;;;;;;4953118;29;20228;-81
2023/09/23 06:18:06;;;;;;;1.93;1.20;;;;;;;;;;4950078;29;20297;-82
2023/09/23 06:20:33;;;;;;;2.97;1.20;;;;;;;;;;4955012;28;20185;-82
2023/09/23 06:23:00;;;;;;;1.37;1.20;;;;;;;;;;4954284;29;20181;-81
2023/09/23 06:25:26;;;;;;;2.30;1.37;;;;;;;;;;4951059;29;20194;-81
2023/09/23 06:27:52;;;;;;;1.73;1.37;;;;;;;;;;4952545;29;20217;-82
2023/09/23 06:30:18;;;;;;;3.73;1.40;;;;;;;;;;4953585;29;20241;-83
2023/09/23 06:32:47;;;;;;;1.83;1.40;;;;;;;;;;4953320;29;20693;-82
2023/09/23 06:35:14;;;;;;;2.03;1.30;;;;;;;;;;4966448;28;20248;-81
2023/09/23 06:37:41;;;;;;;1.77;1.30;;;;;;;;;;4944469;28;20676;-82
2023/09/23 06:40:07;;;;;;;2.20;1.50;;;;;;;;;;4964097;28;20201;-82
2023/09/23 06:42:33;;;;;;;2.60;1.40;;;;;;;;;;4953458;28;20207;-81
2023/09/23 06:44:59;;;;;;;1.67;1.30;;;;;;;;;;4934110;29;20225;-82
2023/09/23 06:47:25;;;;;;;2.57;1.30;;;;;;;;;;4951446;29;20316;-82
2023/09/23 06:49:51;;;;;;;3.27;1.50;;;;;;;;;;4967762;28;20271;-82
2023/09/23 06:52:18;;;;;;;3.27;1.50;;;;;;;;;;4940321;29;20193;-82
2023/09/23 06:54:44;;;;;;;2.90;1.60;;;;;;;;;;4953360;29;20185;-82
2023/09/23 06:57:10;;;;;;;1.60;1.23;;;;;;;;;;4961700;28;20720;-81
2023/09/23 06:59:36;;;;;;;4.30;1.73;;;;;;;;;;4967868;28;20311;-82
2023/09/23 07:02:03;;;;;;;3.17;1.50;;;;;;;;;;4949539;29;20224;-82
2023/09/23 07:04:29;;;;;;;3.07;1.33;;;;;;;;;;4919753;29;20197;-82
2023/09/23 07:06:55;;;;;;;2.80;1.60;;;;;;;;;;4968131;28;20216;-82
2023/09/23 07:09:21;;;;;;;2.60;1.53;;;;;;;;;;4934115;29;20299;-82
2023/09/23 07:11:47;;;;;;;2.43;1.30;;;;;;;;;;4951270;29;20289;-82
2023/09/23 07:14:14;;;;;;;3.00;1.40;;;;;;;;;;4952812;28;20205;-82
2023/09/23 07:16:40;;;;;;;1.70;1.50;;;;;;;;;;4949052;29;20195;-82
2023/09/23 07:19:07;;;;;;;2.47;1.67;;;;;;;;;;4949739;29;20201;-82
2023/09/23 07:21:33;;;;;;;2.40;1.60;;;;;;;;;;4950412;28;20185;-82
2023/09/23 07:23:59;;;;;;;1.97;1.70;;;;;;;;;;4952742;28;20189;-78
2023/09/23 07:26:25;;;;;;;1.80;1.23;;;;;;;;;;4939838;29;20181;-76
2023/09/23 07:28:51;;;;;;;5.30;1.70;;;;;;;;;;4951812;29;20739;-77
2023/09/23 07:31:18;;;;;;;2.97;1.80;;;;;;;;;;4951798;29;20192;-74
2023/09/23 07:33:44;;;;;;;3.07;1.70;;;;;;;;;;4950128;28;20213;-77
2023/09/23 07:36:14;;;;;;;2.93;1.50;;;;;;;;;;4952053;28;20244;-73
2023/09/23 07:38:41;;;;;;;2.67;1.40;;;;;;;;;;4948712;28;20208;-76
2023/09/23 07:41:07;;;;;;;3.53;1.67;;;;;;;;;;4948595;29;20210;-74
2023/09/23 07:43:34;;;;;;;2.23;1.50;;;;;;;;;;4951765;29;20249;-74
2023/09/23 07:46:00;;;;;;;3.37;1.60;;;;;;;;;;4951990;29;20189;-74
2023/09/23 07:48:26;;;;;;;3.83;1.57;;;;;;;;;;4948986;29;20221;-74
2023/09/23 07:50:54;;;;;;;2.33;1.40;;;;;;;;;;4951450;29;20212;-74
2023/09/23 07:53:21;;;;;;;1.90;1.50;;;;;;;;;;4951925;28;20190;-77
2023/09/23 07:55:47;;;;;;;1.80;1.30;;;;;;;;;;4952142;28;20212;-74
2023/09/23 07:58:13;;;;;;;3.57;1.43;;;;;;;;;;4951660;29;20243;-74
2023/09/23 08:00:39;;;;;;;2.87;1.47;;;;;;;;;;4951672;29;20614;-74
2023/09/23 08:03:06;;;;;;;2.67;1.30;;;;;;;;;;4951335;29;20193;-74
2023/09/23 08:05:32;;;;;;;3.03;1.30;;;;;;;;;;4966775;28;20321;-74
2023/09/23 08:07:58;;;;;;;2.93;1.57;;;;;;;;;;4950922;28;20224;-74
2023/09/23 08:10:24;;;;;;;3.10;1.70;;;;;;;;;;4950659;29;20579;-74
2023/09/23 08:12:51;;;;;;;2.83;1.50;;;;;;;;;;4951516;29;20195;-75
2023/09/23 08:15:17;;;;;;;2.17;1.30;;;;;;;;;;4948516;29;20777;-75
2023/09/23 08:17:43;;;;;;;2.50;1.30;;;;;;;;;;4964209;28;20609;-75
2023/09/23 08:20:21;;;;;;;2.87;1.40;;;;;;;;;;4950984;29;20189;-75
2023/09/23 08:22:48;;;;;;;3.40;1.47;;;;;;;;;;4946812;29;20192;-75
2023/09/23 08:25:15;;;;;;;2.57;1.20;;;;;;;;;;4951004;29;20189;-75
2023/09/23 08:27:42;;;;;;;1.97;1.30;;;;;;;;;;4951512;28;20205;-74
2023/09/23 08:30:10;;;;;;;1.77;1.40;;;;;;;;;;4951271;28;20227;-74
2023/09/23 08:32:37;;;;;;;1.73;1.20;;;;;;;;;;4949602;29;20292;-74
2023/09/23 08:35:03;;;;;;;1.43;1.30;;;;;;;;;;4950644;28;20181;-74
2023/09/23 08:37:29;;;;;;;1.97;1.13;;;;;;;;;;4951100;28;20189;-74
2023/09/23 08:39:55;;;;;;;3.40;1.50;;;;;;;;;;4950970;28;20193;-75
2023/09/23 08:42:24;;;;;;;2.73;1.27;;;;;;;;;;4951639;29;20197;-80
2023/09/23 08:44:50;;;;;;;1.93;1.30;;;;;;;;;;4963627;28;20194;-75
2023/09/23 08:47:20;;;;;;;3.23;1.20;;;;;;;;;;4950466;29;20188;-75
2023/09/23 08:49:49;;;;;;;1.53;1.30;;;;;;;;;;4951404;28;20213;-74
2023/09/23 08:52:18;;;;;;;3.40;1.33;;;;;;;;;;4951839;28;20622;-73
2023/09/23 08:54:47;;;;;;;3.93;1.37;;;;;;;;;;4949917;29;20181;-71
2023/09/23 08:57:14;;;;;;;3.63;1.50;;;;;;;;;;4933665;28;20280;-71
2023/09/23 08:59:40;;;;;;;2.90;1.40;;;;;;;;;;4899707;28;20946;-73
2023/09/23 09:02:06;;;;;;;6.40;1.70;;;;;;;;;;4905275;28;20223;-73
2023/09/23 09:04:33;;;;;;;3.87;1.40;;;;;;;;;;4912290;28;22972;-73
2023/09/23 09:06:59;;;;;;;2.37;1.53;;;;;;;;;;4911224;28;22435;-73
2023/09/23 09:09:26;;;;;;;2.43;1.30;;;;;;;;;;4907885;28;20217;-73
2023/09/23 09:11:54;;;;;;;2.77;1.30;;;;;;;;;;4909592;28;20558;-73
2023/09/23 09:14:21;;;;;;;2.80;1.50;;;;;;;;;;4912044;28;20186;-73
2023/09/23 09:16:47;;;;;;;2.90;1.40;;;;;;;;;;4915208;28;20381;-73
2023/09/23 09:19:13;;;;;;;1.43;1.20;;;;;;;;;;4911196;28;20308;-74
2023/09/23 09:21:41;;;;;;;2.87;1.40;;;;;;;;;;4914731;28;20658;-74
2023/09/23 09:24:08;;;;;;;3.33;1.50;;;;;;;;;;4928532;28;20213;-74
2023/09/23 09:26:35;;;;;;;2.40;1.20;;;;;;;;;;4917077;28;20198;-74
2023/09/23 09:29:03;;;;;;;2.07;1.30;;;;;;;;;;4912413;28;20217;-74
2023/09/23 09:31:36;;;;;;;2.07;1.40;;;;;;;;;;4912453;28;21339;-74
2023/09/23 09:34:04;;;;;;;4.70;1.50;;;;;;;;;;4919683;28;20185;-73
2023/09/23 09:36:34;;;;;;;2.00;1.27;;;;;;;;;;4915826;28;20614;-74
2023/09/23 09:39:02;;;;;;;2.10;1.30;;;;;;;;;;4919174;28;21089;-74
2023/09/23 09:41:35;;;;;;;2.67;1.50;;;;;;;;;;4915593;28;22829;-74
2023/09/23 09:44:02;;;;;;;1.33;1.07;;;;;;;;;;4909056;28;20186;-73
2023/09/23 09:46:30;;;;;;;2.27;1.20;;;;;;;;;;4907995;28;20201;-74
2023/09/23 09:48:57;;;;;;;3.03;1.17;;;;;;;;;;4917591;28;20216;-74
2023/09/23 09:51:25;;;;;;;3.47;1.30;;;;;;;;;;4917191;28;20228;-74
2023/09/23 09:53:51;;;;;;;1.73;0.97;;;;;;;;;;4929445;28;20188;-74
2023/09/23 09:56:19;;;;;;;3.67;1.10;;;;;;;;;;4954199;29;20684;-74
2023/09/23 09:58:48;;;;;;;4.97;1.10;;;;;;;;;;4953960;28;20204;-74
2023/09/23 10:01:14;;;;;;;2.67;1.20;;;;;;;;;;4944313;28;20195;-74
2023/09/23 10:03:44;;;;;;;2.53;1.30;;;;;;;;;;4954737;29;20177;-74
2023/09/23 10:06:18;;;;;;;2.10;1.10;;;;;;;;;;4954887;28;20220;-74
2023/09/23 10:08:48;;;;;;;1.93;1.20;;;;;;;;;;4949212;29;20215;-74
2023/09/23 10:11:14;;;;;;;2.33;1.20;;;;;;;;;;4948255;29;20562;-74
2023/09/23 10:13:42;;;;;;;3.63;1.33;;;;;;;;;;4948021;29;20276;-74
2023/09/23 10:16:12;;;;;;;3.17;1.20;;;;;;;;;;4951783;29;20767;-74
2023/09/23 10:18:40;;;;;;;3.03;1.30;;;;;;;;;;4950412;28;20217;-74
2023/09/23 10:21:07;;;;;;;2.77;1.30;;;;;;;;;;4950955;28;20707;-74
2023/09/23 10:23:39;;;;;;;2.13;1.20;;;;;;;;;;4942316;28;20268;-75
2023/09/23 10:26:14;;;;;;;3.67;1.30;;;;;;;;;;4952748;29;20432;-74
2023/09/23 10:28:41;;;;;;;1.87;1.20;;;;;;;;;;4949095;28;20201;-73
2023/09/23 10:31:13;;;;;;;2.73;1.40;;;;;;;;;;4966924;28;20212;-73
2023/09/23 10:33:42;;;;;;;3.33;1.20;;;;;;;;;;4952900;29;20189;-73
2023/09/23 10:36:19;;;;;;;1.50;1.10;;;;;;;;;;4952459;29;20185;-74
2023/09/23 10:38:45;;;;;;;2.80;1.20;;;;;;;;;;4942966;29;20204;-74
2023/09/23 10:41:11;;;;;;;3.27;1.23;;;;;;;;;;4952830;28;20287;-73
2023/09/23 10:43:37;;;;;;;2.10;1.10;;;;;;;;;;4954287;28;20238;-73
2023/09/23 10:46:05;;;;;;;3.40;1.20;;;;;;;;;;4953943;29;20185;-73
2023/09/23 10:48:34;;;;;;;4.27;1.30;;;;;;;;;;4953427;28;20201;-73
2023/09/23 10:51:00;;;;;;;2.10;1.30;;;;;;;;;;4965291;28;20732;-74
2023/09/23 10:53:28;;;;;;;5.33;1.50;;;;;;;;;;4952150;29;20173;-74
2023/09/23 10:55:55;;;;;;;2.83;1.10;;;;;;;;;;4953261;28;20559;-75
2023/09/23 10:58:21;;;;;;;2.60;1.20;;;;;;;;;;4952778;28;20643;-75
2023/09/23 11:00:48;;;;;;;2.30;1.10;;;;;;;;;;4954365;29;20193;-76
2023/09/23 11:03:19;;;;;;;2.17;1.27;;;;;;;;;;4954283;28;20192;-75
2023/09/23 11:05:46;;;;;;;1.63;1.13;;;;;;;;;;4947581;29;20220;-75
2023/09/23 11:08:14;;;;;;;1.77;1.30;;;;;;;;;;4953448;28;20217;-75
2023/09/23 11:10:44;;;;;;;3.90;1.33;;;;;;;;;;4952693;29;20211;-75
2023/09/23 11:13:11;;;;;;;4.00;1.40;;;;;;;;;;4951765;29;20186;-76
2023/09/23 11:15:41;;;;;;;2.30;1.20;;;;;;;;;;4952130;28;20181;-76
2023/09/23 11:18:11;;;;;;;3.30;1.20;;;;;;;;;;4953880;28;20588;-74
2023/09/23 11:20:41;;;;;;;5.07;1.30;;;;;;;;;;4953304;29;20212;-74
2023/09/23 11:23:07;;;;;;;2.20;1.30;;;;;;;;;;4953901;29;20309;-74
2023/09/23 11:25:49;;;;;;;1.70;1.10;;;;;;;;;;4953494;29;20185;-74
2023/09/23 11:28:17;;;;;;;2.77;1.37;;;;;;;;;;4953136;28;20315;-74
2023/09/23 11:30:43;;;;;;;2.40;1.13;;;;;;;;;;4952356;29;20209;-74
2023/09/23 11:33:11;;;;;;;2.40;1.20;;;;;;;;;;4954038;28;20680;-74
2023/09/23 11:35:37;;;;;;;2.23;1.20;;;;;;;;;;4953486;29;20276;-74
2023/09/23 11:38:04;;;;;;;2.50;1.07;;;;;;;;;;4952820;29;20201;-74
2023/09/23 11:40:31;;;;;;;2.57;1.10;;;;;;;;;;4955822;28;20225;-74
2023/09/23 11:42:57;;;;;;;2.10;1.10;;;;;;;;;;4953193;28;20268;-74
2023/09/23 11:45:23;;;;;;;2.43;1.20;;;;;;;;;;4953204;28;20732;-75
2023/09/23 11:47:51;;;;;;;3.40;1.03;;;;;;;;;;4953002;29;20212;-75
2023/09/23 11:50:17;;;;;;;3.30;1.20;;;;;;;;;;4952902;28;20245;-74
2023/09/23 11:52:43;;;;;;;1.90;1.17;;;;;;;;;;4953409;28;20182;-75
2023/09/23 11:55:12;;;;;;;3.43;1.10;;;;;;;;;;4953122;29;20216;-74
2023/09/23 11:57:39;;;;;;;1.90;1.20;;;;;;;;;;4951207;29;20382;-74
2023/09/23 12:00:09;;;;;;;1.50;1.00;;;;;;;;;;4950283;28;20224;-74
2023/09/23 12:02:37;;;;;;;1.87;0.97;;;;;;;;;;4952974;29;20190;-74
2023/09/23 12:05:06;;;;;;;3.37;1.00;;;;;;;;;;4952937;28;20212;-75
2023/09/23 12:07:32;;;;;;;2.27;1.00;;;;;;;;;;4967269;28;20192;-74
2023/09/23 12:09:59;;;;;;;1.10;0.77;;;;;;;;;;4952312;28;20771;-74
2023/09/23 12:12:26;;;;;;;1.83;0.90;;;;;;;;;;4951667;29;20185;-74
2023/09/23 12:14:54;;;;;;;1.93;1.00;;;;;;;;;;4952818;28;20193;-74
2023/09/23 12:17:20;;;;;;;1.70;1.00;;;;;;;;;;4952467;28;20197;-74
2023/09/23 12:19:47;;;;;;;2.23;0.90;;;;;;;;;;4967057;28;20224;-74
2023/09/23 12:22:15;;;;;;;1.70;1.00;;;;;;;;;;4952880;28;20189;-74
2023/09/23 12:24:45;;;;;;;1.73;0.90;;;;;;;;;;4952666;28;20272;-74
2023/09/23 12:27:11;;;;;;;1.27;0.90;;;;;;;;;;4950880;29;20197;-74
2023/09/23 12:29:38;;;;;;;1.23;0.80;;;;;;;;;;4952052;28;20216;-74
2023/09/23 12:32:04;;;;;;;1.80;0.97;;;;;;;;;;4952616;28;20264;-74
2023/09/23 12:34:31;;;;;;;1.70;0.90;;;;;;;;;;4952462;29;20181;-74
2023/09/23 12:36:57;;;;;;;1.00;0.77;;;;;;;;;;4952466;29;20700;-74
2023/09/23 12:39:23;;;;;;;2.63;1.00;;;;;;;;;;4951866;29;20317;-74
2023/09/23 12:41:50;;;;;;;1.83;0.90;;;;;;;;;;4952582;28;20688;-73
2023/09/23 12:44:16;;;;;;;2.63;1.07;;;;;;;;;;4952495;29;20193;-72
2023/09/23 12:46:43;;;;;;;2.23;1.20;;;;;;;;;;4952843;28;20196;-73
2023/09/23 12:49:09;;;;;;;2.70;1.00;;;;;;;;;;4952301;28;20229;-74
2023/09/23 12:51:38;;;;;;;1.83;0.90;;;;;;;;;;4951224;29;20180;-74
2023/09/23 12:54:06;;;;;;;2.07;1.20;;;;;;;;;;4951255;28;20216;-73
2023/09/23 12:56:33;;;;;;;1.63;1.00;;;;;;;;;;4954278;28;20184;-73
2023/09/23 12:58:59;;;;;;;2.80;1.20;;;;;;;;;;4950527;29;20281;-74
2023/09/23 13:01:26;;;;;;;3.23;1.20;;;;;;;;;;4951954;28;20181;-74
2023/09/23 13:03:52;;;;;;;2.30;1.37;;;;;;;;;;4952184;28;20241;-73
2023/09/23 13:06:18;;;;;;;1.23;1.00;;;;;;;;;;4952475;28;20179;-74
2023/09/23 13:08:44;;;;;;;1.27;1.07;;;;;;;;;;4951857;28;20631;-74
2023/09/23 13:11:11;;;;;;;2.50;1.13;;;;;;;;;;4951510;28;20758;-74
2023/09/23 13:13:37;;;;;;;2.37;1.10;;;;;;;;;;4951376;29;20184;-74
2023/09/23 13:16:03;;;;;;;3.90;1.30;;;;;;;;;;4950345;29;20208;-74
2023/09/23 13:18:31;;;;;;;2.73;1.30;;;;;;;;;;4951483;28;20228;-73
2023/09/23 13:20:57;;;;;;;1.87;1.10;;;;;;;;;;4950534;28;20188;-74
2023/09/23 13:23:23;;;;;;;1.97;1.43;;;;;;;;;;4951632;29;20196;-73
2023/09/23 13:25:49;;;;;;;3.17;1.30;;;;;;;;;;4949645;28;20186;-73
2023/09/23 13:28:16;;;;;;;3.57;1.23;;;;;;;;;;4951632;29;20582;-73
2023/09/23 13:30:43;;;;;;;1.90;1.20;;;;;;;;;;4950758;28;20211;-73
2023/09/23 13:33:09;;;;;;;2.77;1.20;;;;;;;;;;4948559;29;20202;-74
2023/09/23 13:35:36;;;;;;;1.47;1.00;;;;;;;;;;4951954;28;20189;-74
2023/09/23 13:38:03;;;;;;;2.50;1.00;;;;;;;;;;4951599;28;20206;-74
2023/09/23 13:40:29;;;;;;;1.87;0.93;;;;;;;;;;4951543;29;20190;-74
2023/09/23 13:42:55;;;;;;;2.13;1.10;;;;;;;;;;4952002;29;20250;-74
2023/09/23 13:45:21;;;;;;;3.27;1.20;;;;;;;;;;4951789;28;20279;-73
2023/09/23 13:47:48;;;;;;;2.10;1.00;;;;;;;;;;4951865;29;20221;-73
2023/09/23 13:50:14;;;;;;;3.37;1.20;;;;;;;;;;4951508;28;20271;-73
2023/09/23 13:52:40;;;;;;;1.80;1.00;;;;;;;;;;4951689;29;20262;-74
2023/09/23 13:55:07;;;;;;;2.37;1.00;;;;;;;;;;4951567;28;20191;-73
2023/09/23 13:57:33;;;;;;;2.50;1.17;;;;;;;;;;4951369;28;20214;-73
2023/09/23 13:59:59;;;;;;;2.33;1.10;;;;;;;;;;4951339;28;20240;-73
2023/09/23 14:02:25;;;;;;;2.93;1.20;;;;;;;;;;4951240;28;20252;-73
2023/09/23 14:04:51;;;;;;;1.47;1.03;;;;;;;;;;4951703;28;20189;-73
2023/09/23 14:07:17;;;;;;;2.17;1.20;;;;;;;;;;4952638;28;20198;-74
2023/09/23 14:09:44;;;;;;;2.77;1.30;;;;;;;;;;4954462;28;20222;-73
2023/09/23 14:12:10;;;;;;;1.90;1.17;;;;;;;;;;4955117;29;20191;-73
2023/09/23 14:14:36;;;;;;;2.43;1.23;;;;;;;;;;4954961;29;20238;-73
2023/09/23 14:17:02;;;;;;;1.83;1.10;;;;;;;;;;4954849;29;20204;-73
2023/09/23 14:19:28;;;;;;;1.90;1.00;;;;;;;;;;4954283;28;20589;-73
2023/09/23 14:21:55;;;;;;;2.73;1.30;;;;;;;;;;4954857;28;20614;-73
2023/09/23 14:24:21;;;;;;;2.60;1.37;;;;;;;;;;4953133;28;20185;-73
2023/09/23 14:26:47;;;;;;;1.77;1.40;;;;;;;;;;4954232;28;20188;-73
2023/09/23 14:29:13;;;;;;;2.10;1.30;;;;;;;;;;4953937;28;20313;-73
2023/09/23 14:31:39;;;;;;;3.27;1.60;;;;;;;;;;4950592;29;20200;-73
2023/09/23 14:34:06;;;;;;;1.80;1.20;;;;;;;;;;4954760;28;20181;-73
2023/09/23 14:36:32;;;;;;;2.90;1.30;;;;;;;;;;4969527;28;20259;-73
2023/09/23 14:39:03;;;;;;;2.93;1.20;;;;;;;;;;4954287;28;20307;-73
2023/09/23 14:41:33;;;;;;;2.97;1.30;;;;;;;;;;4949647;29;20678;-73
2023/09/23 14:44:00;;;;;;;2.57;1.30;;;;;;;;;;4954596;28;20217;-73